Hlavní strana
METAR-TAF:

METAR-TAF

Letiště :

Verona, Itálie

zeměpisná šířka: 45-23N, zeměpisná délka: 010-52E, výška: 67 m

Aktuální stav počasí

Zpráva byla vytvořena před 11 minutami, v 10:50 UTC
vítr z různých směrů 5 kt
Teplota 32°C
Vlhkost vzduchu 41%
Tlak 1016 hPa
Viditelnost 10 km a více
Skoro jasno ve výšce 4000 ft

METAR: LIPX 201050Z VRB05KT 9999 FEW040 32/17 Q1016

Čas: 13:01 (11:01 UTC)

Předpověď počasí

Zpráva byla vytvořena před 3 hodinami a 1 minutami, v 08:00 UTC
Předpověď platná od 20 v 09 UTC do 20 v 18 UTC
vítr z různých směrů 5 kt
Viditelnost 10 km a více
Polojasno ve výšce 5000 ft
Pravděpodobnost 30% :
Dočasný
od 20 v 12 UTC do 20 v 15 UTC
bouřka, déšť

TAF: LIPX 200800Z 2009/2018 VRB05KT 9999 SCT050 PROB30 TEMPO 2012/2015 TSRA

Stav a předpovědi počasí z více než 4 000 letišť (zprávy METAR a TAF).

Červené a žluté tečky na mapě představují dostupné meteorologické stanice.

Když kurzor umístíte na tečku, zobrazí se název stanice.

Pak kliknutím zobrazíte stav a předpověď počasí.

Chcete-li změnit mapu, kliknutím na zelené tlačítko se znaménkem +mapu přiblížíte, kliknutím na zelené tlačítko se znaménkem – mapu oddálíte a kliknutím na zelené šipky přejdete na sousední mapy.


METAR-TAF: